Time;durP1;ratioP1;P1;durP2;ratioP2;P2;SDS_P1;SDS_P2;PMS_P1;PMS_P2;Temp;Humidity;BMP_temperature;BMP_pressure;BME280_temperature;BME280_humidity;BME280_pressure;Samples;Min_cycle;Max_cycle;Signal;HPM_P1;HPM_P2
2021/12/19 00:00:45;;;;;;;20.35;11.88;;;7.40;99.90;;;;;;5053223;28;20452;-73
2021/12/19 00:11:08;;;;;;;13.82;7.60;;;7.40;99.90;;;;;;5067927;28;20044;-73
2021/12/19 00:13:34;;;;;;;14.60;7.38;;;7.40;99.90;;;;;;5068146;28;20135;-72
2021/12/19 00:16:00;;;;;;;16.52;7.53;;;7.40;99.90;;;;;;5067426;28;20045;-73
2021/12/19 00:18:26;;;;;;;13.60;8.18;;;7.40;99.90;;;;;;5057928;28;20160;-73
2021/12/19 00:20:52;;;;;;;17.50;7.72;;;7.40;99.90;;;;;;5060447;28;20746;-73
2021/12/19 00:23:17;;;;;;;13.77;8.23;;;7.40;99.90;;;;;;5065888;28;20390;-72
2021/12/19 00:25:43;;;;;;;14.35;9.45;;;7.40;99.90;;;;;;5071684;28;20101;-73
2021/12/19 00:28:09;;;;;;;18.50;11.40;;;7.40;99.90;;;;;;5089650;28;20048;-73
2021/12/19 00:30:35;;;;;;;31.33;11.02;;;7.40;99.90;;;;;;5087006;28;20055;-73
2021/12/19 00:33:01;;;;;;;25.85;12.25;;;7.40;99.90;;;;;;5071352;28;20044;-73
2021/12/19 00:35:27;;;;;;;18.83;9.82;;;7.40;99.90;;;;;;5068880;28;20048;-73
2021/12/19 00:37:53;;;;;;;16.70;9.80;;;7.40;99.90;;;;;;5070173;28;20044;-73
2021/12/19 00:40:20;;;;;;;17.55;10.32;;;7.40;99.90;;;;;;5088526;28;20040;-73
2021/12/19 00:43:01;;;;;;;18.05;10.75;;;7.50;99.90;;;;;;5067248;28;20045;-73
2021/12/19 00:45:29;;;;;;;17.48;10.75;;;7.50;99.90;;;;;;5057504;28;20578;-73
2021/12/19 00:47:55;;;;;;;21.60;12.07;;;7.40;99.90;;;;;;5085128;28;20450;-73
2021/12/19 00:50:21;;;;;;;25.15;11.77;;;7.40;99.90;;;;;;5068257;28;20044;-73
2021/12/19 00:52:47;;;;;;;24.55;11.90;;;7.40;99.90;;;;;;5068197;28;20045;-73
2021/12/19 00:55:18;;;;;;;19.35;11.73;;;7.40;99.90;;;;;;5070941;28;20078;-73
2021/12/19 00:57:45;;;;;;;25.55;12.80;;;7.50;99.90;;;;;;5066049;28;20319;-73
2021/12/19 01:00:13;;;;;;;22.58;11.98;;;7.40;99.90;;;;;;5074698;28;20048;-73
2021/12/19 01:02:39;;;;;;;21.63;12.15;;;7.40;99.90;;;;;;5089244;28;20667;-73
2021/12/19 01:05:06;;;;;;;26.35;13.70;;;7.40;99.90;;;;;;5067629;28;20085;-73
2021/12/19 01:07:32;;;;;;;21.75;12.63;;;7.50;99.90;;;;;;5059408;28;20120;-73
2021/12/19 01:09:58;;;;;;;22.45;12.05;;;7.50;99.90;;;;;;5064617;28;20192;-73
2021/12/19 01:12:25;;;;;;;24.73;12.05;;;7.50;99.90;;;;;;5069683;28;20040;-73
2021/12/19 01:14:51;;;;;;;22.40;12.88;;;7.50;99.90;;;;;;5067787;28;20536;-73
2021/12/19 01:17:17;;;;;;;16.77;10.48;;;7.50;99.90;;;;;;5069131;28;20110;-73
2021/12/19 01:19:45;;;;;;;14.02;7.93;;;7.50;99.90;;;;;;5084852;28;20720;-73
2021/12/19 01:22:11;;;;;;;18.17;8.17;;;7.50;99.90;;;;;;5069616;28;20501;-73
2021/12/19 01:24:37;;;;;;;15.98;8.60;;;7.50;99.90;;;;;;5070317;28;20117;-73
2021/12/19 01:27:04;;;;;;;12.88;6.72;;;7.50;99.90;;;;;;5066939;28;20818;-73
2021/12/19 01:29:30;;;;;;;12.05;7.05;;;7.50;99.90;;;;;;5068891;28;20048;-73
2021/12/19 01:31:56;;;;;;;11.45;6.65;;;7.50;99.90;;;;;;5067053;28;20056;-73
2021/12/19 01:34:22;;;;;;;8.60;5.05;;;7.50;99.90;;;;;;5070061;28;20106;-73
2021/12/19 01:36:48;;;;;;;7.07;4.68;;;7.50;99.90;;;;;;5079246;28;20524;-73
2021/12/19 01:39:14;;;;;;;9.43;5.70;;;7.50;99.90;;;;;;5074314;28;20042;-73
2021/12/19 01:41:49;;;;;;;12.98;6.20;;;7.50;99.90;;;;;;5092804;28;20055;-73
2021/12/19 01:44:15;;;;;;;9.35;4.93;;;7.50;99.90;;;;;;5073257;28;20044;-73
2021/12/19 01:46:41;;;;;;;15.32;6.72;;;7.50;99.90;;;;;;5091642;28;20055;-73
2021/12/19 01:49:06;;;;;;;12.65;6.07;;;7.50;99.90;;;;;;5073193;28;20075;-73
2021/12/19 01:51:32;;;;;;;13.82;7.25;;;7.50;99.90;;;;;;5073384;28;20047;-73
2021/12/19 01:53:58;;;;;;;19.27;9.25;;;7.50;99.90;;;;;;5040906;28;20037;-73
2021/12/19 01:56:24;;;;;;;20.05;8.77;;;7.50;99.90;;;;;;5090767;28;20052;-73
2021/12/19 01:58:49;;;;;;;19.13;8.77;;;7.50;99.90;;;;;;5072742;28;20040;-74
2021/12/19 02:01:15;;;;;;;14.13;7.30;;;7.50;99.90;;;;;;5082101;28;20077;-73
2021/12/19 02:03:41;;;;;;;7.68;4.55;;;7.50;99.90;;;;;;5071495;28;20508;-73
2021/12/19 02:06:07;;;;;;;13.77;3.80;;;7.50;99.90;;;;;;5092191;28;20044;-73
2021/12/19 02:08:32;;;;;;;6.45;3.50;;;7.40;99.90;;;;;;5071935;28;20410;-73
2021/12/19 02:10:58;;;;;;;7.05;3.58;;;7.40;99.90;;;;;;5087841;28;20044;-73
2021/12/19 02:13:24;;;;;;;9.20;4.03;;;7.50;99.90;;;;;;5090827;28;20435;-73
2021/12/19 02:15:50;;;;;;;5.75;3.20;;;7.40;99.90;;;;;;5091626;28;20073;-73
2021/12/19 02:18:18;;;;;;;6.38;3.40;;;7.40;99.90;;;;;;5092923;28;20089;-73
2021/12/19 02:20:47;;;;;;;;;;;7.40;99.90;;;;;;5066638;28;20059;-73
2021/12/19 02:23:13;;;;;;;7.68;3.40;;;7.40;99.90;;;;;;5073231;28;19927;-73
2021/12/19 02:25:39;;;;;;;7.07;2.83;;;7.40;99.90;;;;;;5071885;28;20424;-73
2021/12/19 02:28:05;;;;;;;3.33;2.40;;;7.40;99.90;;;;;;5072260;28;20052;-73
2021/12/19 02:30:31;;;;;;;5.63;3.45;;;7.40;99.90;;;;;;5055817;28;20040;-73
2021/12/19 02:32:57;;;;;;;9.38;3.17;;;7.40;99.90;;;;;;5090515;28;20040;-73
2021/12/19 02:35:27;;;;;;;6.85;2.63;;;7.40;99.90;;;;;;5070390;28;20064;-73
2021/12/19 02:48:13;;;;;;;2.45;2.20;;;7.30;99.90;;;;;;5071668;28;20054;-72
2021/12/19 02:50:51;;;;;;;3.30;2.17;;;7.30;99.90;;;;;;5069608;28;20044;-72
2021/12/19 02:53:26;;;;;;;6.47;2.03;;;7.30;99.90;;;;;;5068962;28;20051;-72
2021/12/19 02:55:52;;;;;;;2.38;1.98;;;7.30;99.90;;;;;;5054562;28;20052;-72
2021/12/19 02:58:17;;;;;;;6.90;2.10;;;7.30;99.90;;;;;;5071487;28;20047;-72
2021/12/19 03:00:43;;;;;;;4.38;2.53;;;7.30;99.90;;;;;;5087536;28;20044;-72
2021/12/19 03:03:09;;;;;;;4.45;2.40;;;7.30;99.90;;;;;;5070934;28;20066;-72
2021/12/19 03:05:37;;;;;;;4.30;2.80;;;7.30;99.90;;;;;;5087657;28;20485;-73
2021/12/19 03:08:03;;;;;;;3.38;1.50;;;7.30;99.90;;;;;;5088900;28;20516;-72
2021/12/19 03:13:48;;;;;;;5.18;2.47;;;7.30;99.90;;;;;;5070250;28;20044;-72
2021/12/19 03:18:58;;;;;;;4.05;2.33;;;7.30;99.90;;;;;;5067645;28;20079;-72
2021/12/19 03:21:25;;;;;;;4.15;2.97;;;7.30;99.90;;;;;;5070986;28;20083;-73
2021/12/19 03:23:52;;;;;;;4.72;2.83;;;7.30;99.90;;;;;;5063884;28;20153;-73
2021/12/19 03:26:18;;;;;;;6.97;2.70;;;7.30;99.90;;;;;;5050099;28;1053214;-73
2021/12/19 03:28:44;;;;;;;7.20;2.67;;;7.30;99.90;;;;;;5070877;28;20064;-73
2021/12/19 03:31:11;;;;;;;6.07;3.35;;;7.20;99.90;;;;;;5072289;28;20071;-73
2021/12/19 03:33:38;;;;;;;2.83;2.15;;;7.20;99.90;;;;;;5090865;28;20106;-72
2021/12/19 03:36:05;;;;;;;4.55;2.05;;;7.20;99.90;;;;;;5090385;28;20039;-72
2021/12/19 03:38:33;;;;;;;2.72;1.45;;;7.20;99.90;;;;;;5090763;28;20089;-72
2021/12/19 03:43:43;;;;;;;3.03;1.75;;;7.20;99.90;;;;;;5071916;28;20048;-73
2021/12/19 03:46:08;;;;;;;1.55;1.42;;;7.10;99.90;;;;;;5088647;28;20036;-73
2021/12/19 03:48:34;;;;;;;2.50;1.75;;;7.10;99.90;;;;;;5072736;28;20094;-73
2021/12/19 03:51:00;;;;;;;2.70;1.60;;;7.10;99.90;;;;;;5068287;28;20097;-73
2021/12/19 03:53:26;;;;;;;3.55;1.38;;;7.10;99.90;;;;;;5070810;28;20133;-73
2021/12/19 03:55:51;;;;;;;2.15;1.40;;;7.10;99.90;;;;;;5087514;28;20043;-72
2021/12/19 03:58:19;;;;;;;1.33;0.90;;;7.10;99.90;;;;;;5090603;28;20398;-73
2021/12/19 04:00:45;;;;;;;1.00;0.70;;;7.10;99.90;;;;;;5070673;28;20063;-73
2021/12/19 04:03:17;;;;;;;3.90;1.23;;;7.00;99.90;;;;;;5086779;28;20038;-73
2021/12/19 04:05:45;;;;;;;0.70;0.60;;;7.00;99.90;;;;;;5069366;28;20052;-73
2021/12/19 04:08:12;;;;;;;2.10;1.05;;;7.00;99.90;;;;;;5070358;28;20924;-73
2021/12/19 04:10:38;;;;;;;1.25;0.75;;;6.90;99.90;;;;;;5063870;28;20040;-73
2021/12/19 04:13:04;;;;;;;1.58;0.80;;;6.90;99.90;;;;;;5070026;28;20055;-72
2021/12/19 04:15:30;;;;;;;1.60;1.00;;;6.90;99.90;;;;;;5071392;28;20048;-73
2021/12/19 04:17:56;;;;;;;2.60;0.95;;;6.80;99.90;;;;;;5071938;28;20255;-73
2021/12/19 04:20:22;;;;;;;1.75;1.13;;;6.80;99.90;;;;;;5070126;28;20135;-73
2021/12/19 04:22:49;;;;;;;5.53;1.00;;;6.90;99.90;;;;;;5090148;28;20064;-72
2021/12/19 04:25:16;;;;;;;1.35;0.80;;;6.90;99.90;;;;;;5067531;28;20148;-73
2021/12/19 04:27:43;;;;;;;1.65;1.23;;;6.90;99.90;;;;;;5084868;28;20056;-72
2021/12/19 04:30:12;;;;;;;2.85;1.75;;;6.90;99.90;;;;;;5087819;28;20058;-73
2021/12/19 04:32:42;;;;;;;2.83;1.27;;;6.90;99.90;;;;;;5069886;28;20416;-72
2021/12/19 04:35:09;;;;;;;5.93;1.20;;;6.90;99.90;;;;;;5070581;28;20492;-72
2021/12/19 04:38:05;;;;;;;5.25;1.27;;;7.00;99.90;;;;;;5070601;28;20040;-72
2021/12/19 04:40:26;;;;;;;1.52;1.08;;;6.90;99.90;;;;;;5085331;28;20523;-72
2021/12/19 04:54:01;;;;;;;7.95;1.90;;;6.90;99.90;;;;;;5088776;28;20626;-72
2021/12/19 04:56:44;;;;;;;5.00;1.98;;;6.90;99.90;;;;;;5069273;28;20059;-72
2021/12/19 05:02:12;;;;;;;4.88;3.08;;;6.90;99.90;;;;;;5061363;28;20047;-72
2021/12/19 05:15:25;;;;;;;13.60;7.10;;;6.90;99.90;;;;;;5087859;28;20044;-72
2021/12/19 05:17:52;;;;;;;17.65;5.95;;;6.90;99.90;;;;;;5084453;28;20490;-72
2021/12/19 05:20:22;;;;;;;12.23;7.30;;;6.90;99.90;;;;;;5063802;28;20138;-72
2021/12/19 05:22:49;;;;;;;20.50;8.82;;;6.90;99.90;;;;;;5088970;28;20420;-72
2021/12/19 05:25:17;;;;;;;25.48;8.85;;;7.00;99.90;;;;;;5053958;28;20040;-72
2021/12/19 05:27:49;;;;;;;24.23;9.10;;;7.00;99.90;;;;;;5087278;28;20060;-72
2021/12/19 05:30:16;;;;;;;28.70;9.27;;;7.00;99.90;;;;;;5065745;28;20043;-72
2021/12/19 05:32:44;;;;;;;22.55;9.02;;;7.00;99.90;;;;;;5061512;28;20111;-72
2021/12/19 05:35:14;;;;;;;29.65;9.70;;;7.00;99.90;;;;;;5067613;28;20052;-72
2021/12/19 05:45:53;;;;;;;21.00;8.82;;;7.00;99.90;;;;;;5075725;28;20048;-72
2021/12/19 05:48:19;;;;;;;23.83;8.38;;;7.00;99.90;;;;;;5070299;28;20051;-72
2021/12/19 05:50:45;;;;;;;20.88;8.00;;;7.00;99.90;;;;;;5070469;28;20048;-72
2021/12/19 05:53:11;;;;;;;26.35;10.18;;;7.00;99.90;;;;;;5087104;28;20134;-72
2021/12/19 05:55:39;;;;;;;22.23;10.63;;;7.10;99.90;;;;;;5086321;28;20055;-72
2021/12/19 05:58:05;;;;;;;21.03;9.67;;;7.10;99.90;;;;;;5088595;28;20040;-72
2021/12/19 06:00:32;;;;;;;29.02;10.02;;;7.10;99.90;;;;;;5088871;28;20042;-72
2021/12/19 06:02:59;;;;;;;25.73;10.00;;;7.10;99.90;;;;;;5087678;28;20071;-72
2021/12/19 06:05:25;;;;;;;38.55;10.60;;;7.10;99.90;;;;;;5087793;28;20097;-72
2021/12/19 06:07:51;;;;;;;28.60;11.82;;;7.00;99.90;;;;;;5087849;28;20036;-72
2021/12/19 06:10:17;;;;;;;27.30;11.60;;;7.00;99.90;;;;;;5087928;28;20048;-72
2021/12/19 06:12:43;;;;;;;22.63;11.68;;;7.10;99.90;;;;;;5089069;28;20096;-72
2021/12/19 06:15:10;;;;;;;26.38;11.15;;;7.10;99.90;;;;;;5086006;28;20056;-72
2021/12/19 06:17:38;;;;;;;26.90;10.68;;;7.10;99.90;;;;;;5067016;28;20107;-72
2021/12/19 06:20:05;;;;;;;31.75;11.60;;;7.10;99.90;;;;;;5091243;28;20051;-72
2021/12/19 06:22:30;;;;;;;31.90;12.75;;;7.10;99.90;;;;;;5091745;28;20032;-72
2021/12/19 06:24:56;;;;;;;24.42;11.32;;;7.10;99.90;;;;;;5071428;28;20105;-72
2021/12/19 06:27:21;;;;;;;38.22;14.23;;;7.10;99.90;;;;;;5085901;28;20060;-72
2021/12/19 06:29:49;;;;;;;35.40;12.70;;;7.10;99.90;;;;;;5087554;28;20059;-73
2021/12/19 06:32:16;;;;;;;30.13;11.73;;;7.10;99.90;;;;;;5084922;28;20043;-73
2021/12/19 06:34:42;;;;;;;25.63;10.95;;;7.10;99.90;;;;;;5081750;28;20051;-72
2021/12/19 06:37:09;;;;;;;27.88;11.07;;;7.10;99.90;;;;;;5075396;28;20460;-72
2021/12/19 06:39:36;;;;;;;29.83;11.15;;;7.10;99.90;;;;;;5077757;28;20111;-72
2021/12/19 06:42:04;;;;;;;22.10;11.68;;;7.10;99.90;;;;;;5089601;28;20516;-72
2021/12/19 06:44:31;;;;;;;29.37;12.17;;;7.10;99.90;;;;;;5071710;28;20119;-72
2021/12/19 06:46:57;;;;;;;30.00;11.57;;;7.10;99.90;;;;;;5078543;28;20279;-72
2021/12/19 06:49:22;;;;;;;29.40;11.05;;;7.10;99.90;;;;;;5071369;28;20063;-72
2021/12/19 06:51:48;;;;;;;27.80;10.85;;;7.10;99.90;;;;;;5090603;28;20033;-72
2021/12/19 06:54:13;;;;;;;31.60;11.90;;;7.10;99.90;;;;;;5078160;28;20497;-72
2021/12/19 06:56:39;;;;;;;22.42;9.95;;;7.10;99.90;;;;;;5087322;28;20489;-72
2021/12/19 06:59:05;;;;;;;28.83;11.18;;;7.10;99.90;;;;;;5070523;28;20056;-72
2021/12/19 07:01:31;;;;;;;25.33;11.05;;;7.10;99.90;;;;;;5071345;28;20043;-72
2021/12/19 07:03:56;;;;;;;25.30;10.70;;;7.10;99.90;;;;;;5090303;28;20190;-72
2021/12/19 07:06:22;;;;;;;26.90;11.15;;;7.10;99.90;;;;;;5059223;28;20048;-72
2021/12/19 07:08:48;;;;;;;25.65;10.23;;;7.10;99.90;;;;;;5085770;28;20055;-72
2021/12/19 07:11:14;;;;;;;27.42;11.13;;;7.10;99.90;;;;;;5059205;28;20386;-72
2021/12/19 07:13:39;;;;;;;34.15;10.63;;;7.10;99.90;;;;;;5086003;28;20047;-72
2021/12/19 07:16:06;;;;;;;31.95;11.52;;;7.10;99.90;;;;;;5066919;28;20400;-72
2021/12/19 07:18:32;;;;;;;23.27;10.32;;;7.10;99.90;;;;;;5064595;28;20390;-72
2021/12/19 07:20:58;;;;;;;25.00;10.82;;;7.10;99.90;;;;;;5063387;28;20078;-72
2021/12/19 07:23:24;;;;;;;35.83;12.68;;;7.10;99.90;;;;;;5073644;28;20050;-72
2021/12/19 07:25:50;;;;;;;27.70;10.77;;;7.10;99.90;;;;;;5068583;28;20060;-72
2021/12/19 07:28:16;;;;;;;31.65;11.52;;;7.10;99.90;;;;;;5063137;28;20063;-72
2021/12/19 07:30:41;;;;;;;31.13;10.75;;;7.10;99.90;;;;;;5070861;28;20047;-72
2021/12/19 07:33:10;;;;;;;17.08;7.90;;;7.10;99.90;;;;;;5091116;28;20121;-72
2021/12/19 07:35:38;;;;;;;24.58;9.75;;;7.10;99.90;;;;;;5071732;28;20039;-72
2021/12/19 07:38:05;;;;;;;20.25;9.02;;;7.10;99.90;;;;;;5069988;28;20060;-73
2021/12/19 07:40:36;;;;;;;18.23;9.13;;;7.10;99.90;;;;;;5071496;28;20386;-72
2021/12/19 07:43:04;;;;;;;29.42;8.23;;;7.10;99.90;;;;;;5055175;28;20044;-73
2021/12/19 07:45:31;;;;;;;20.83;8.40;;;7.10;99.90;;;;;;5058024;28;20383;-73
2021/12/19 07:47:58;;;;;;;21.83;8.02;;;7.10;99.90;;;;;;5066308;28;20317;-73
2021/12/19 07:50:24;;;;;;;21.83;8.35;;;7.10;99.90;;;;;;5088565;28;20128;-73
2021/12/19 07:52:50;;;;;;;34.03;9.13;;;7.10;99.90;;;;;;5071514;28;20401;-73
2021/12/19 07:55:16;;;;;;;26.50;8.38;;;7.10;99.90;;;;;;5072242;28;20040;-73
2021/12/19 07:57:42;;;;;;;23.20;7.53;;;7.10;99.90;;;;;;5089255;28;20048;-73
2021/12/19 08:00:09;;;;;;;31.70;8.52;;;7.10;99.90;;;;;;5070116;28;20043;-73
2021/12/19 08:02:35;;;;;;;26.83;8.60;;;7.10;99.90;;;;;;5064936;28;20056;-73
2021/12/19 08:05:01;;;;;;;19.80;7.90;;;7.20;99.90;;;;;;5075261;28;20048;-72
2021/12/19 08:07:27;;;;;;;22.13;8.00;;;7.10;99.90;;;;;;5083443;28;20059;-72
2021/12/19 08:10:11;;;;;;;34.90;8.43;;;7.20;99.90;;;;;;5069860;28;20051;-73
2021/12/19 08:12:37;;;;;;;22.23;8.55;;;7.20;99.90;;;;;;5095035;28;20051;-72
2021/12/19 08:15:04;;;;;;;16.55;7.05;;;7.20;99.90;;;;;;5088873;28;20148;-73
2021/12/19 08:17:31;;;;;;;22.08;8.50;;;7.10;99.90;;;;;;5090062;28;20135;-72
2021/12/19 08:19:58;;;;;;;22.58;7.63;;;7.20;99.90;;;;;;5080854;28;20067;-72
2021/12/19 08:22:24;;;;;;;24.08;7.50;;;7.20;99.90;;;;;;5087981;28;20044;-72
2021/12/19 08:24:50;;;;;;;26.08;7.80;;;7.20;99.90;;;;;;5069744;28;20044;-72
2021/12/19 08:27:17;;;;;;;36.70;8.23;;;7.20;99.90;;;;;;5087334;28;20132;-73
2021/12/19 08:29:42;;;;;;;27.10;8.40;;;7.10;99.90;;;;;;5082426;28;20063;-73
2021/12/19 08:32:09;;;;;;;24.83;8.32;;;7.20;99.90;;;;;;5084923;28;20509;-72
2021/12/19 08:34:35;;;;;;;29.40;8.68;;;7.20;99.90;;;;;;5083547;28;20040;-72
2021/12/19 08:37:02;;;;;;;23.10;7.60;;;7.20;99.90;;;;;;5080915;28;20388;-72
2021/12/19 08:39:29;;;;;;;28.48;9.27;;;7.20;99.90;;;;;;5083643;28;20056;-72
2021/12/19 08:41:54;;;;;;;19.08;7.22;;;7.20;99.90;;;;;;5064631;28;20080;-72
2021/12/19 08:44:20;;;;;;;14.02;6.93;;;7.30;99.90;;;;;;5084519;28;20518;-72
2021/12/19 08:46:46;;;;;;;20.45;7.68;;;7.20;99.90;;;;;;5086260;28;20591;-72
2021/12/19 08:49:13;;;;;;;23.85;6.97;;;7.30;99.90;;;;;;5080242;28;20044;-73
2021/12/19 08:51:39;;;;;;;18.60;5.55;;;7.30;99.90;;;;;;5078492;28;20071;-73
2021/12/19 08:54:06;;;;;;;19.73;7.03;;;7.30;99.90;;;;;;5079785;28;20055;-73
2021/12/19 08:56:32;;;;;;;16.15;5.93;;;7.30;99.90;;;;;;5065258;28;20071;-73
2021/12/19 08:58:59;;;;;;;17.58;6.40;;;7.30;99.90;;;;;;5059799;28;20058;-73
2021/12/19 09:01:26;;;;;;;20.70;6.75;;;7.30;99.90;;;;;;5069898;28;20876;-73
2021/12/19 09:03:51;;;;;;;27.27;7.55;;;7.30;99.90;;;;;;5065573;28;20093;-73
2021/12/19 09:06:17;;;;;;;14.07;6.75;;;7.40;99.90;;;;;;5067691;28;20076;-73
2021/12/19 09:08:43;;;;;;;20.25;7.13;;;7.40;99.90;;;;;;5086081;28;20044;-73
2021/12/19 09:11:09;;;;;;;23.77;8.30;;;7.40;99.90;;;;;;5055289;28;20133;-72
2021/12/19 09:13:35;;;;;;;18.70;7.38;;;7.40;99.90;;;;;;5080815;28;20051;-73
2021/12/19 09:16:01;;;;;;;18.52;7.10;;;7.40;99.90;;;;;;5068463;28;20044;-73
2021/12/19 09:18:28;;;;;;;14.35;6.65;;;7.40;99.90;;;;;;5067159;28;20547;-73
2021/12/19 09:20:55;;;;;;;23.27;7.95;;;7.40;99.90;;;;;;5081075;28;20118;-72
2021/12/19 09:23:21;;;;;;;28.15;7.55;;;7.50;99.90;;;;;;5067879;28;20460;-72
2021/12/19 09:25:47;;;;;;;22.67;7.53;;;7.40;99.90;;;;;;5079073;28;20044;-72
2021/12/19 09:28:14;;;;;;;16.67;6.00;;;7.50;99.90;;;;;;5062736;28;20067;-72
2021/12/19 09:30:41;;;;;;;24.85;7.55;;;7.50;99.90;;;;;;5068102;28;20538;-73
2021/12/19 09:33:07;;;;;;;21.63;8.10;;;7.50;99.90;;;;;;5064731;28;20044;-73
2021/12/19 09:35:34;;;;;;;27.45;7.35;;;7.50;99.90;;;;;;5061511;28;20043;-72
2021/12/19 09:38:00;;;;;;;25.67;8.52;;;7.50;99.90;;;;;;5064196;28;20048;-72
2021/12/19 09:40:33;;;;;;;21.23;6.63;;;7.60;99.90;;;;;;5052298;28;20126;-72
2021/12/19 09:43:02;;;;;;;20.77;7.35;;;7.50;99.90;;;;;;5063992;28;20131;-72
2021/12/19 09:45:29;;;;;;;30.20;7.50;;;7.60;99.90;;;;;;5064248;28;20054;-72
2021/12/19 09:47:55;;;;;;;18.70;6.50;;;7.60;99.90;;;;;;5061606;28;20119;-72
2021/12/19 09:50:22;;;;;;;24.60;7.40;;;7.60;99.90;;;;;;5059504;28;20237;-72
2021/12/19 09:52:49;;;;;;;19.80;5.88;;;7.60;99.90;;;;;;5082270;28;20085;-72
2021/12/19 09:55:19;;;;;;;27.50;6.95;;;7.60;99.90;;;;;;5088568;28;20039;-72
2021/12/19 09:57:45;;;;;;;16.73;5.35;;;7.60;99.90;;;;;;5073657;28;20083;-72
2021/12/19 10:00:12;;;;;;;25.27;7.00;;;7.60;99.90;;;;;;5066284;28;20044;-72
2021/12/19 10:02:38;;;;;;;21.30;6.93;;;7.60;99.90;;;;;;5064189;28;20490;-72
2021/12/19 10:05:25;;;;;;;23.35;6.35;;;7.60;99.90;;;;;;5081646;28;20055;-72
2021/12/19 10:08:00;;;;;;;15.07;5.07;;;7.60;99.90;;;;;;5055826;28;20443;-73
2021/12/19 10:10:55;;;;;;;17.05;6.75;;;7.70;99.90;;;;;;5083303;28;20126;-72
2021/12/19 10:13:40;;;;;;;14.20;5.60;;;7.70;99.90;;;;;;5087720;28;20051;-73
2021/12/19 10:16:26;;;;;;;18.50;5.35;;;7.70;99.90;;;;;;5087651;28;20136;-73
2021/12/19 10:18:54;;;;;;;19.00;5.88;;;7.70;99.90;;;;;;5087837;28;20054;-73
2021/12/19 10:21:20;;;;;;;11.13;5.80;;;7.70;99.90;;;;;;5075491;28;20076;-73
2021/12/19 10:23:47;;;;;;;24.15;5.10;;;7.70;99.90;;;;;;5085357;28;20123;-73
2021/12/19 10:26:13;;;;;;;11.00;4.15;;;7.70;99.90;;;;;;5067908;28;20068;-72
2021/12/19 10:28:57;;;;;;;32.25;6.10;;;7.70;99.90;;;;;;5085271;28;20071;-72
2021/12/19 10:31:25;;;;;;;19.20;5.60;;;7.70;99.90;;;;;;5071369;28;20123;-73
2021/12/19 10:33:52;;;;;;;15.73;6.10;;;7.70;99.90;;;;;;5082050;28;20036;-73
2021/12/19 10:36:18;;;;;;;19.15;6.03;;;7.70;99.90;;;;;;5066968;28;20163;-73
2021/12/19 10:38:50;;;;;;;15.73;5.30;;;7.80;99.90;;;;;;5082026;28;20083;-73
2021/12/19 10:41:20;;;;;;;14.27;5.15;;;7.80;99.90;;;;;;5086979;28;20048;-72
2021/12/19 10:43:59;;;;;;;23.25;6.30;;;7.80;99.90;;;;;;5060047;28;20083;-72
2021/12/19 10:46:40;;;;;;;25.85;6.47;;;7.80;99.90;;;;;;5073153;28;20050;-73
2021/12/19 10:49:28;;;;;;;14.77;7.07;;;7.90;99.90;;;;;;5091016;28;20127;-73
2021/12/19 10:52:01;;;;;;;17.15;5.97;;;7.90;99.90;;;;;;5089743;28;20052;-73
2021/12/19 10:54:27;;;;;;;15.27;4.88;;;7.90;99.90;;;;;;5067819;28;20056;-72
2021/12/19 10:57:12;;;;;;;25.58;6.30;;;7.90;99.90;;;;;;5070125;28;20048;-72
2021/12/19 10:59:38;;;;;;;15.23;5.40;;;8.00;99.90;;;;;;5062226;28;20090;-73
2021/12/19 11:02:04;;;;;;;19.65;5.78;;;7.90;99.90;;;;;;5067280;28;20119;-72
2021/12/19 11:04:35;;;;;;;15.80;5.55;;;7.90;99.90;;;;;;5066308;28;20144;-72
2021/12/19 11:07:02;;;;;;;13.43;4.72;;;7.90;99.90;;;;;;5067775;28;20079;-71
2021/12/19 11:09:34;;;;;;;18.40;6.03;;;7.90;99.90;;;;;;5090289;28;20131;-71
2021/12/19 11:12:02;;;;;;;15.27;4.95;;;8.00;99.90;;;;;;5085061;28;20045;-71
2021/12/19 11:14:37;;;;;;;;;;;8.00;99.90;;;;;;5065110;28;20059;-71
2021/12/19 11:17:09;;;;;;;26.90;5.60;;;7.90;99.90;;;;;;5070441;28;19920;-71
2021/12/19 11:19:37;;;;;;;14.18;5.03;;;7.90;99.90;;;;;;5064912;28;20123;-71
2021/12/19 11:22:03;;;;;;;17.40;4.97;;;7.90;99.90;;;;;;5066866;28;20493;-71
2021/12/19 11:24:29;;;;;;;19.23;5.28;;;8.00;99.90;;;;;;5065546;28;20032;-72
2021/12/19 11:27:00;;;;;;;19.25;5.18;;;8.00;99.90;;;;;;5065496;28;20790;-71
2021/12/19 11:29:27;;;;;;;18.90;5.53;;;8.00;99.90;;;;;;5066770;28;20052;-71
2021/12/19 11:31:59;;;;;;;17.55;4.80;;;8.00;99.90;;;;;;5083944;28;20043;-71
2021/12/19 11:34:28;;;;;;;34.65;6.85;;;8.10;99.90;;;;;;5067395;28;20065;-71
2021/12/19 11:37:05;;;;;;;19.67;5.82;;;8.10;99.90;;;;;;5065660;28;20078;-72
2021/12/19 11:39:33;;;;;;;18.00;5.63;;;8.10;99.90;;;;;;5067778;28;20054;-72
2021/12/19 11:42:07;;;;;;;30.75;5.38;;;8.10;99.90;;;;;;5077237;28;20969;-72
2021/12/19 11:47:45;;;;;;;13.45;4.07;;;8.10;99.90;;;;;;5062626;28;20067;-72
2021/12/19 11:50:14;;;;;;;27.98;5.40;;;8.10;99.90;;;;;;5093188;28;20490;-71
2021/12/19 11:52:40;;;;;;;15.98;4.47;;;8.10;99.90;;;;;;5065287;28;20055;-71
2021/12/19 11:55:19;;;;;;;22.70;5.35;;;8.10;99.90;;;;;;5067365;28;20056;-71
2021/12/19 11:58:07;;;;;;;21.67;6.28;;;8.10;99.90;;;;;;5081281;28;20051;-72
2021/12/19 12:00:38;;;;;;;25.92;5.85;;;8.10;99.90;;;;;;5067033;28;20047;-72
2021/12/19 12:03:13;;;;;;;30.05;6.00;;;8.10;99.90;;;;;;5062096;28;20594;-72
2021/12/19 12:05:43;;;;;;;19.00;5.22;;;8.10;99.90;;;;;;5068559;28;20040;-72
2021/12/19 12:08:09;;;;;;;24.45;5.20;;;8.10;99.90;;;;;;5069923;28;20040;-71
2021/12/19 12:10:47;;;;;;;21.98;5.13;;;8.10;99.90;;;;;;5067168;28;20048;-71
2021/12/19 12:13:22;;;;;;;25.75;5.85;;;8.10;99.90;;;;;;5062379;28;20143;-72
2021/12/19 12:15:53;;;;;;;28.92;5.07;;;8.10;99.90;;;;;;5069264;28;20055;-72
2021/12/19 12:18:37;;;;;;;25.13;6.72;;;8.10;99.90;;;;;;5064199;28;20040;-72
2021/12/19 12:21:29;;;;;;;26.08;6.15;;;8.10;99.90;;;;;;5072859;28;20455;-72
2021/12/19 12:24:18;;;;;;;23.38;5.03;;;8.20;99.90;;;;;;5061859;28;20056;-71
2021/12/19 12:26:49;;;;;;;21.33;6.50;;;8.10;99.90;;;;;;5050745;28;20052;-72
2021/12/19 12:29:16;;;;;;;16.65;4.57;;;8.10;99.90;;;;;;5060648;28;20048;-72
2021/12/19 12:31:46;;;;;;;23.77;6.50;;;8.10;99.90;;;;;;5060017;28;20398;-72
2021/12/19 12:34:14;;;;;;;22.88;6.20;;;8.10;99.90;;;;;;5066463;28;20493;-72
2021/12/19 12:36:40;;;;;;;24.50;6.47;;;8.20;99.90;;;;;;5066817;28;20060;-72
2021/12/19 12:39:11;;;;;;;21.23;5.80;;;8.10;99.90;;;;;;5066149;28;20036;-72
2021/12/19 12:41:50;;;;;;;24.40;6.32;;;8.10;99.90;;;;;;5076334;28;20040;-71
2021/12/19 12:44:19;;;;;;;30.83;7.25;;;8.10;99.90;;;;;;5082065;28;20063;-71
2021/12/19 12:46:45;;;;;;;29.67;6.70;;;8.20;99.90;;;;;;5060911;28;20054;-72
2021/12/19 12:49:15;;;;;;;23.55;6.30;;;8.10;99.90;;;;;;5067522;28;20429;-72
2021/12/19 12:51:44;;;;;;;22.27;6.28;;;8.10;99.90;;;;;;5062483;28;20105;-72
2021/12/19 12:54:11;;;;;;;;;;;8.10;99.90;;;;;;5055921;28;20047;-72
2021/12/19 12:56:46;;;;;;;31.58;7.07;;;8.10;99.90;;;;;;5063380;28;19924;-72
2021/12/19 12:59:14;;;;;;;26.35;6.13;;;8.10;99.90;;;;;;5062084;28;20496;-72
2021/12/19 13:01:44;;;;;;;;;;;8.10;99.90;;;;;;5063913;28;20044;-72
2021/12/19 13:04:15;;;;;;;29.15;6.40;;;8.10;99.90;;;;;;5062396;28;19955;-72
2021/12/19 13:07:04;;;;;;;18.98;6.50;;;8.10;99.90;;;;;;5070230;28;20048;-72
2021/12/19 13:09:40;;;;;;;26.90;7.65;;;8.10;99.90;;;;;;5067845;28;20100;-72
2021/12/19 13:12:23;;;;;;;23.90;7.13;;;8.10;99.90;;;;;;5066139;28;20441;-71
2021/12/19 13:14:58;;;;;;;22.58;6.05;;;8.10;99.90;;;;;;5083881;28;20036;-71
2021/12/19 13:17:31;;;;;;;32.55;7.28;;;8.10;99.90;;;;;;5071679;28;20044;-71
2021/12/19 13:20:08;;;;;;;32.53;7.47;;;8.10;99.90;;;;;;5062587;28;20098;-71
2021/12/19 13:23:03;;;;;;;23.88;6.60;;;8.10;99.90;;;;;;5086910;28;20127;-71
2021/12/19 13:25:40;;;;;;;29.58;6.93;;;8.10;99.90;;;;;;5065627;28;20056;-71
2021/12/19 13:28:20;;;;;;;29.80;7.70;;;8.10;99.90;;;;;;5092355;28;20161;-71
2021/12/19 13:30:46;;;;;;;30.92;7.75;;;8.10;99.90;;;;;;5071799;28;20157;-71
2021/12/19 13:33:18;;;;;;;30.10;7.20;;;8.00;99.90;;;;;;5069955;28;20493;-71
2021/12/19 13:35:53;;;;;;;35.47;7.47;;;8.10;99.90;;;;;;5066018;28;20499;-72
2021/12/19 13:38:23;;;;;;;29.98;8.35;;;8.10;99.90;;;;;;5056616;28;20059;-71
2021/12/19 13:40:58;;;;;;;30.17;7.13;;;8.00;99.90;;;;;;5068060;28;20047;-71
2021/12/19 13:43:28;;;;;;;20.75;7.10;;;8.10;99.90;;;;;;5090090;28;20850;-71
2021/12/19 13:46:06;;;;;;;35.97;7.38;;;8.10;99.90;;;;;;5068914;28;20059;-71
2021/12/19 13:48:54;;;;;;;36.65;7.70;;;8.10;99.90;;;;;;5068178;28;20516;-71
2021/12/19 13:51:25;;;;;;;24.92;7.18;;;8.10;99.90;;;;;;5077212;28;20503;-71
2021/12/19 13:53:59;;;;;;;28.13;7.05;;;8.10;99.90;;;;;;5076742;28;20441;-71
2021/12/19 13:56:33;;;;;;;20.77;7.53;;;8.10;99.90;;;;;;5071207;28;20159;-71
2021/12/19 13:59:04;;;;;;;30.40;6.60;;;8.10;99.90;;;;;;5091598;28;20044;-71